Time;durP1;ratioP1;P1;durP2;ratioP2;P2;SDS_P1;SDS_P2;PMS_P1;PMS_P2;Temp;Humidity;BMP_temperature;BMP_pressure;BME280_temperature;BME280_humidity;BME280_pressure;Samples;Min_cycle;Max_cycle;Signal;HPM_P1;HPM_P2
2022/10/23 00:00:55;;;;;;;4.32;3.75;;;10.10;99.90;;;;;;4998987;28;20065;-82
2022/10/23 00:03:20;;;;;;;6.07;3.65;;;10.10;99.90;;;;;;4984728;28;20035;-81
2022/10/23 00:05:46;;;;;;;9.10;3.80;;;10.10;99.90;;;;;;4991167;28;20500;-81
2022/10/23 00:08:12;;;;;;;5.93;3.80;;;10.10;99.90;;;;;;4978265;28;20034;-80
2022/10/23 00:10:41;;;;;;;4.88;4.07;;;10.10;99.90;;;;;;4994021;28;20030;-82
2022/10/23 00:13:07;;;;;;;5.82;3.88;;;10.10;99.90;;;;;;5009353;28;20045;-83
2022/10/23 00:15:35;;;;;;;6.10;3.53;;;10.10;99.90;;;;;;4976780;28;20081;-81
2022/10/23 00:18:01;;;;;;;6.25;3.50;;;10.10;99.90;;;;;;5009429;28;20726;-80
2022/10/23 00:20:27;;;;;;;4.63;3.15;;;10.00;99.90;;;;;;4993901;28;20113;-82
2022/10/23 00:22:53;;;;;;;4.25;3.00;;;10.00;99.90;;;;;;4954898;28;20031;-81
2022/10/23 00:25:19;;;;;;;4.05;3.00;;;10.00;99.90;;;;;;5004226;28;20125;-81
2022/10/23 00:27:45;;;;;;;3.50;2.97;;;10.00;99.90;;;;;;4993829;28;20054;-81
2022/10/23 00:30:11;;;;;;;4.68;3.03;;;10.00;99.90;;;;;;5010134;28;20034;-81
2022/10/23 00:32:37;;;;;;;4.38;2.80;;;9.90;99.90;;;;;;4979761;28;20065;-80
2022/10/23 00:35:04;;;;;;;6.55;3.10;;;9.90;99.90;;;;;;4988418;28;20133;-82
2022/10/23 00:37:30;;;;;;;4.97;2.90;;;9.90;99.90;;;;;;4985521;28;20129;-81
2022/10/23 00:39:56;;;;;;;5.45;2.70;;;9.90;99.90;;;;;;4989948;28;20073;-81
2022/10/23 00:42:23;;;;;;;8.68;2.70;;;9.80;99.90;;;;;;4978344;28;20038;-81
2022/10/23 00:44:49;;;;;;;5.00;3.00;;;9.90;99.90;;;;;;4975778;28;20030;-80
2022/10/23 00:47:15;;;;;;;4.28;2.83;;;9.80;99.90;;;;;;5005705;28;20053;-81
2022/10/23 00:49:41;;;;;;;3.50;2.75;;;9.80;99.90;;;;;;5008217;28;20403;-81
2022/10/23 00:52:09;;;;;;;7.05;3.30;;;9.80;99.90;;;;;;4975305;28;20053;-80
2022/10/23 00:54:42;;;;;;;4.22;3.00;;;9.70;99.90;;;;;;4991335;28;20833;-81
2022/10/23 00:57:13;;;;;;;4.85;2.70;;;9.70;99.90;;;;;;4992830;28;20032;-84
2022/10/23 00:59:39;;;;;;;4.50;3.00;;;9.70;99.90;;;;;;5005154;28;20085;-81
2022/10/23 01:02:06;;;;;;;5.88;4.10;;;9.60;99.90;;;;;;4977847;28;20030;-84
2022/10/23 01:04:32;;;;;;;5.85;3.90;;;9.60;99.90;;;;;;4989884;28;20030;-83
2022/10/23 01:07:15;;;;;;;6.78;3.63;;;9.60;99.90;;;;;;4987400;28;20422;-82
2022/10/23 01:09:51;;;;;;;9.20;4.15;;;9.60;99.90;;;;;;5011728;28;20034;-81
2022/10/23 01:12:33;;;;;;;4.45;4.00;;;9.70;99.90;;;;;;4989070;28;20037;-81
2022/10/23 01:15:09;;;;;;;6.75;4.57;;;9.70;99.90;;;;;;4987683;28;20030;-81
2022/10/23 01:17:38;;;;;;;6.35;4.63;;;9.80;99.90;;;;;;5009440;28;20041;-81
2022/10/23 01:20:32;;;;;;;6.75;4.90;;;9.90;99.90;;;;;;4989078;28;20082;-81
2022/10/23 01:23:06;;;;;;;12.85;5.10;;;9.90;99.90;;;;;;4981038;28;20045;-81
2022/10/23 01:25:47;;;;;;;6.30;5.07;;;9.90;99.90;;;;;;4994917;28;20100;-81
2022/10/23 01:28:20;;;;;;;5.95;5.07;;;9.90;99.90;;;;;;4997075;28;20297;-80
2022/10/23 01:30:47;;;;;;;7.15;5.35;;;10.00;99.90;;;;;;4991440;28;20061;-81
2022/10/23 01:33:24;;;;;;;7.45;4.95;;;10.00;99.90;;;;;;4987027;28;20042;-81
2022/10/23 01:36:03;;;;;;;7.00;4.93;;;9.90;99.90;;;;;;4981295;28;20093;-81
2022/10/23 01:39:01;;;;;;;4.70;4.20;;;9.90;99.90;;;;;;4943257;28;20129;-81
2022/10/23 01:41:32;;;;;;;5.18;4.68;;;9.90;99.90;;;;;;4987415;28;20034;-82
2022/10/23 01:44:43;;;;;;;5.32;4.70;;;9.80;99.90;;;;;;4975089;28;20026;-81
2022/10/23 01:47:12;;;;;;;6.80;5.30;;;9.70;99.90;;;;;;4977226;28;20049;-82
2022/10/23 01:49:52;;;;;;;8.20;5.65;;;9.80;99.90;;;;;;4991017;28;20023;-80
2022/10/23 01:52:19;;;;;;;11.15;5.93;;;9.80;99.90;;;;;;4985850;28;20624;-82
2022/10/23 01:54:50;;;;;;;9.30;6.72;;;9.80;99.90;;;;;;4989169;28;20066;-83
2022/10/23 01:57:19;;;;;;;16.08;7.30;;;9.80;99.90;;;;;;4974512;28;20483;-81
2022/10/23 01:59:50;;;;;;;9.23;6.47;;;9.70;99.90;;;;;;4973086;28;20022;-80
2022/10/23 02:02:20;;;;;;;21.08;7.32;;;9.70;99.90;;;;;;4991833;28;20030;-82
2022/10/23 02:04:58;;;;;;;7.90;6.38;;;9.80;99.90;;;;;;4990883;28;20027;-81
2022/10/23 02:07:23;;;;;;;18.73;7.90;;;9.80;99.90;;;;;;5006674;28;20053;-81
2022/10/23 02:09:49;;;;;;;36.30;9.95;;;9.80;99.90;;;;;;4941454;28;20069;-81
2022/10/23 02:12:39;;;;;;;15.88;7.47;;;9.80;99.90;;;;;;4974075;28;20089;-81
2022/10/23 02:15:14;;;;;;;51.92;9.60;;;9.90;99.90;;;;;;5005301;28;20475;-82
2022/10/23 02:18:08;;;;;;;11.80;7.50;;;9.80;99.90;;;;;;4957159;28;20037;-81
2022/10/23 02:20:44;;;;;;;61.38;9.73;;;9.90;99.90;;;;;;4976806;28;20788;-81
2022/10/23 02:23:21;;;;;;;24.85;8.77;;;9.90;99.90;;;;;;5025480;28;20512;-83
2022/10/23 02:26:02;;;;;;;26.60;9.50;;;10.00;99.90;;;;;;5004338;28;20041;-81
2022/10/23 02:28:36;;;;;;;25.20;9.30;;;10.00;99.90;;;;;;4986122;28;20495;-82
2022/10/23 02:31:06;;;;;;;30.98;9.80;;;10.00;99.90;;;;;;4965434;28;20045;-81
2022/10/23 02:33:34;;;;;;;22.75;8.90;;;10.00;99.90;;;;;;4973301;28;20038;-82
2022/10/23 02:36:00;;;;;;;13.52;9.13;;;10.00;99.90;;;;;;4995797;28;20022;-81
2022/10/23 02:38:40;;;;;;;30.67;10.18;;;10.10;99.90;;;;;;5025090;28;20034;-82
2022/10/23 02:41:16;;;;;;;30.33;10.57;;;10.00;99.90;;;;;;5000481;28;20030;-81
2022/10/23 02:44:14;;;;;;;20.92;10.20;;;10.10;99.90;;;;;;4988084;28;20034;-81
2022/10/23 02:47:10;;;;;;;20.23;10.05;;;10.10;99.90;;;;;;4973044;28;20030;-81
2022/10/23 02:49:49;;;;;;;22.33;9.80;;;10.20;99.90;;;;;;4990576;28;20089;-82
2022/10/23 02:52:55;;;;;;;15.20;10.02;;;10.10;99.90;;;;;;5005602;28;20033;-83
2022/10/23 02:55:30;;;;;;;15.52;10.35;;;10.20;99.90;;;;;;4987348;28;20554;-82
2022/10/23 02:58:04;;;;;;;18.13;10.63;;;10.20;99.90;;;;;;5012182;28;20033;-81
2022/10/23 03:00:34;;;;;;;20.42;10.68;;;10.30;99.90;;;;;;4974905;28;20403;-81
2022/10/23 03:03:14;;;;;;;23.52;11.55;;;10.30;99.90;;;;;;4985845;28;20602;-82
2022/10/23 03:05:43;;;;;;;27.55;10.98;;;10.30;99.90;;;;;;5007655;28;20033;-81
2022/10/23 03:08:12;;;;;;;23.80;11.43;;;10.30;99.90;;;;;;4996846;28;20030;-81
2022/10/23 03:10:39;;;;;;;22.67;11.90;;;10.30;99.90;;;;;;4975451;28;20058;-82
2022/10/23 03:13:06;;;;;;;24.73;11.45;;;10.30;99.90;;;;;;5005147;28;20031;-81
2022/10/23 03:15:39;;;;;;;19.88;11.27;;;10.30;99.90;;;;;;4957843;28;20026;-83
2022/10/23 03:18:05;;;;;;;27.38;11.93;;;10.30;99.90;;;;;;4972044;28;20721;-82
2022/10/23 03:20:32;;;;;;;24.77;11.82;;;10.30;99.90;;;;;;4980308;28;20081;-82
2022/10/23 03:22:58;;;;;;;26.75;11.82;;;10.30;99.90;;;;;;4971988;28;20027;-82
2022/10/23 03:25:25;;;;;;;17.42;11.15;;;10.30;99.90;;;;;;4989845;28;20125;-82
2022/10/23 03:27:51;;;;;;;25.70;12.35;;;10.30;99.90;;;;;;5014395;28;20121;-83
2022/10/23 03:30:17;;;;;;;18.05;11.32;;;10.20;99.90;;;;;;4972846;28;20039;-82
2022/10/23 03:32:47;;;;;;;22.27;12.15;;;10.20;99.90;;;;;;4970213;28;20049;-80
2022/10/23 03:35:13;;;;;;;21.70;11.20;;;10.20;99.90;;;;;;4995197;28;20552;-82
2022/10/23 03:37:39;;;;;;;21.30;12.13;;;10.20;99.90;;;;;;4952356;28;20125;-82
2022/10/23 03:40:05;;;;;;;20.50;11.90;;;10.20;99.90;;;;;;4977806;28;20039;-81
2022/10/23 03:42:33;;;;;;;19.40;12.02;;;10.20;99.90;;;;;;5003755;28;20131;-82
2022/10/23 03:44:59;;;;;;;20.63;12.07;;;10.20;99.90;;;;;;4999819;28;20098;-81
2022/10/23 03:47:25;;;;;;;18.15;11.48;;;10.10;99.90;;;;;;4954489;28;20046;-81
2022/10/23 03:49:51;;;;;;;20.23;11.85;;;10.20;99.90;;;;;;4955248;28;20691;-82
2022/10/23 03:52:17;;;;;;;21.08;12.23;;;10.20;99.90;;;;;;5020921;28;20034;-81
2022/10/23 03:54:42;;;;;;;23.05;12.10;;;10.10;99.90;;;;;;5015724;28;20030;-82
2022/10/23 03:57:09;;;;;;;22.25;11.80;;;10.10;99.90;;;;;;4971753;28;20461;-82
2022/10/23 03:59:35;;;;;;;15.43;10.63;;;10.10;99.90;;;;;;4997877;28;20031;-81
2022/10/23 04:02:04;;;;;;;20.05;11.85;;;10.10;99.90;;;;;;4990202;28;20677;-81
2022/10/23 04:04:29;;;;;;;20.42;11.68;;;10.10;99.90;;;;;;5016131;28;20038;-81
2022/10/23 04:06:55;;;;;;;19.98;11.55;;;10.10;99.90;;;;;;4982898;28;20034;-82
2022/10/23 04:09:21;;;;;;;16.77;10.18;;;10.10;99.90;;;;;;4974487;28;20388;-81
2022/10/23 04:11:47;;;;;;;16.48;11.23;;;10.10;99.90;;;;;;4974576;28;20045;-81
2022/10/23 04:14:13;;;;;;;16.17;10.63;;;10.10;99.90;;;;;;4974424;28;20031;-82
2022/10/23 04:16:39;;;;;;;19.48;10.80;;;10.10;99.90;;;;;;4974717;28;20045;-82
2022/10/23 04:19:05;;;;;;;20.17;12.02;;;10.10;99.90;;;;;;4971801;28;20408;-81
2022/10/23 04:21:31;;;;;;;18.35;11.82;;;10.10;99.90;;;;;;4994268;28;20029;-82
2022/10/23 04:23:57;;;;;;;21.30;11.52;;;10.10;99.90;;;;;;4993804;28;20040;-83
2022/10/23 04:26:23;;;;;;;21.73;12.48;;;10.10;99.90;;;;;;5013342;28;20035;-81
2022/10/23 04:28:50;;;;;;;22.48;12.30;;;10.10;99.90;;;;;;4971856;28;20031;-82
2022/10/23 04:31:16;;;;;;;23.50;12.77;;;10.10;99.90;;;;;;4990615;28;20038;-81
2022/10/23 04:33:42;;;;;;;26.38;12.45;;;10.10;99.90;;;;;;5026046;28;20030;-82
2022/10/23 04:36:08;;;;;;;26.33;12.38;;;10.10;99.90;;;;;;5001745;28;20068;-82
2022/10/23 04:38:34;;;;;;;23.17;12.48;;;10.10;99.90;;;;;;4974194;28;20041;-81
2022/10/23 04:41:01;;;;;;;23.65;11.88;;;10.10;99.90;;;;;;4981296;28;20037;-81
2022/10/23 04:43:28;;;;;;;19.77;12.02;;;10.10;99.90;;;;;;5004828;28;20085;-82
2022/10/23 04:45:55;;;;;;;21.30;12.00;;;10.10;99.90;;;;;;5019532;28;20534;-81
2022/10/23 04:48:21;;;;;;;22.00;12.52;;;10.10;99.90;;;;;;5006374;28;20151;-82
2022/10/23 04:51:09;;;;;;;28.63;12.63;;;10.00;99.90;;;;;;4992865;28;20127;-82
2022/10/23 04:53:53;;;;;;;;;;;10.00;99.90;;;;;;4991069;28;20569;-82
2022/10/23 04:56:42;;;;;;;23.10;12.57;;;10.10;99.90;;;;;;4960180;28;19921;-81
2022/10/23 04:59:13;;;;;;;20.75;12.00;;;10.10;99.90;;;;;;5009721;28;20033;-82
2022/10/23 05:01:40;;;;;;;24.48;12.63;;;10.10;99.90;;;;;;4987122;28;20038;-82
2022/10/23 05:04:08;;;;;;;19.23;11.43;;;10.10;99.90;;;;;;4972731;28;20065;-83
2022/10/23 05:06:45;;;;;;;21.15;12.20;;;10.20;99.90;;;;;;5000494;28;20088;-82
2022/10/23 05:09:21;;;;;;;28.23;12.80;;;10.30;99.90;;;;;;4970211;28;20054;-82
2022/10/23 05:11:55;;;;;;;20.33;11.98;;;10.30;99.90;;;;;;4972738;28;20040;-83
2022/10/23 05:14:20;;;;;;;20.92;12.20;;;10.30;99.90;;;;;;4990405;28;20117;-82
2022/10/23 05:17:09;;;;;;;21.35;11.73;;;10.30;99.90;;;;;;5002400;28;20056;-81
2022/10/23 05:19:40;;;;;;;21.73;12.68;;;10.30;99.90;;;;;;4996349;28;20093;-82
2022/10/23 05:22:07;;;;;;;22.15;11.77;;;10.30;99.90;;;;;;4974674;28;20046;-82
2022/10/23 05:24:49;;;;;;;20.98;11.50;;;10.40;99.90;;;;;;4972144;28;20027;-82
2022/10/23 05:27:17;;;;;;;20.30;11.23;;;10.40;99.90;;;;;;4963202;28;20034;-83
2022/10/23 05:29:43;;;;;;;21.20;12.30;;;10.40;99.90;;;;;;4966328;28;20384;-82
2022/10/23 05:32:12;;;;;;;20.27;12.15;;;10.40;99.90;;;;;;4985416;28;20082;-84
2022/10/23 05:34:39;;;;;;;20.90;12.10;;;10.40;99.90;;;;;;4956971;28;20042;-81
2022/10/23 05:37:08;;;;;;;21.95;11.98;;;10.40;99.90;;;;;;4988170;28;20027;-84
2022/10/23 05:39:37;;;;;;;22.10;11.95;;;10.50;99.90;;;;;;4976708;28;20027;-82
2022/10/23 05:42:07;;;;;;;22.80;12.63;;;10.50;99.90;;;;;;4974415;28;20384;-80
2022/10/23 05:44:33;;;;;;;21.05;11.82;;;10.50;99.90;;;;;;4987951;28;20038;-84
2022/10/23 05:47:17;;;;;;;18.90;11.13;;;10.50;99.90;;;;;;4988473;28;20064;-82
2022/10/23 05:49:43;;;;;;;21.67;11.98;;;10.50;99.90;;;;;;4987215;28;20445;-83
2022/10/23 05:52:32;;;;;;;26.80;12.32;;;10.50;99.90;;;;;;5006162;28;20101;-83
2022/10/23 05:55:27;;;;;;;19.02;12.02;;;10.50;99.90;;;;;;4984923;28;20093;-83
2022/10/23 05:58:16;;;;;;;20.27;11.82;;;10.50;99.90;;;;;;4987015;28;20503;-82
2022/10/23 06:00:57;;;;;;;23.67;13.10;;;10.50;99.90;;;;;;4986430;28;20050;-84
2022/10/23 06:03:53;;;;;;;20.17;12.27;;;10.50;99.90;;;;;;4967469;28;20027;-85
2022/10/23 06:06:23;;;;;;;20.25;13.20;;;10.50;99.90;;;;;;4989175;28;20038;-83
2022/10/23 06:08:49;;;;;;;22.85;13.18;;;10.50;99.90;;;;;;4957520;28;20120;-83
2022/10/23 06:11:18;;;;;;;19.95;12.00;;;10.50;99.90;;;;;;4977720;28;20113;-81
2022/10/23 06:13:53;;;;;;;21.20;12.70;;;10.60;99.90;;;;;;5007365;28;20533;-83
2022/10/23 06:16:24;;;;;;;19.70;12.48;;;10.60;99.90;;;;;;4974782;28;20462;-82
2022/10/23 06:18:50;;;;;;;21.40;12.43;;;10.70;99.90;;;;;;4975284;28;20114;-83
2022/10/23 06:21:17;;;;;;;20.77;12.25;;;10.70;99.90;;;;;;4982736;28;20125;-82
2022/10/23 06:23:46;;;;;;;17.95;11.30;;;10.70;99.90;;;;;;4990384;28;20026;-82
2022/10/23 06:26:17;;;;;;;20.38;11.68;;;10.80;99.90;;;;;;4987296;28;20031;-82
2022/10/23 06:28:55;;;;;;;17.42;11.57;;;10.80;99.90;;;;;;4992677;28;20038;-84
2022/10/23 06:31:25;;;;;;;18.50;11.75;;;10.80;99.90;;;;;;4975526;28;20049;-83
2022/10/23 06:33:55;;;;;;;18.27;11.55;;;10.90;99.90;;;;;;4974485;28;20031;-82
2022/10/23 06:36:21;;;;;;;16.23;10.93;;;10.90;99.90;;;;;;4963830;28;20031;-82
2022/10/23 06:38:48;;;;;;;17.33;11.32;;;11.00;99.90;;;;;;4989915;28;20443;-82
2022/10/23 06:41:21;;;;;;;19.92;11.73;;;11.00;99.90;;;;;;4988658;28;20077;-82
2022/10/23 06:43:52;;;;;;;19.48;12.07;;;11.00;99.90;;;;;;4970189;28;20047;-82
2022/10/23 06:46:37;;;;;;;16.83;11.10;;;11.10;99.90;;;;;;4972314;28;20031;-84
2022/10/23 06:49:35;;;;;;;18.35;11.55;;;11.10;99.90;;;;;;4976027;28;20045;-82
2022/10/23 06:52:01;;;;;;;17.02;10.60;;;11.20;99.90;;;;;;4991463;28;20034;-83
2022/10/23 06:54:27;;;;;;;15.93;10.68;;;11.20;99.90;;;;;;4971479;28;20760;-82
2022/10/23 06:57:11;;;;;;;19.02;10.70;;;11.20;99.90;;;;;;4999213;28;20439;-82
2022/10/23 06:59:44;;;;;;;16.70;10.07;;;11.20;99.90;;;;;;5006367;28;20035;-83
2022/10/23 07:02:09;;;;;;;13.95;9.88;;;11.30;99.90;;;;;;4989465;28;20541;-83
2022/10/23 07:04:36;;;;;;;14.98;10.02;;;11.30;99.90;;;;;;4955993;28;20719;-82
2022/10/23 07:07:09;;;;;;;17.38;10.90;;;11.40;99.90;;;;;;4990453;28;20545;-85
2022/10/23 07:09:43;;;;;;;16.20;10.05;;;11.30;99.90;;;;;;4974967;28;20499;-84
2022/10/23 07:12:12;;;;;;;13.55;9.60;;;11.30;99.90;;;;;;4985523;28;20541;-84
2022/10/23 07:14:45;;;;;;;15.50;9.57;;;11.30;99.90;;;;;;4970537;28;20027;-82
2022/10/23 07:17:11;;;;;;;15.00;10.35;;;11.30;99.90;;;;;;4950990;28;20022;-84
2022/10/23 07:19:37;;;;;;;14.73;10.15;;;11.40;99.90;;;;;;4970432;28;20038;-82
2022/10/23 07:22:07;;;;;;;12.43;9.60;;;11.40;99.90;;;;;;4974141;28;20030;-84
2022/10/23 07:24:39;;;;;;;14.63;9.52;;;11.40;99.90;;;;;;4957870;28;20122;-84
2022/10/23 07:27:38;;;;;;;13.77;10.07;;;11.40;99.90;;;;;;4962250;28;20073;-84
2022/10/23 07:30:07;;;;;;;15.77;9.30;;;11.40;99.90;;;;;;4971285;28;20522;-83
2022/10/23 07:32:41;;;;;;;13.10;9.38;;;11.40;99.90;;;;;;4968032;28;20117;-83
2022/10/23 07:35:39;;;;;;;12.40;8.30;;;11.50;99.90;;;;;;4983717;28;20025;-83
2022/10/23 07:38:09;;;;;;;13.75;9.07;;;11.50;99.90;;;;;;4993438;28;20030;-83
2022/10/23 07:40:40;;;;;;;14.98;9.82;;;11.50;99.90;;;;;;4975860;28;20050;-83
2022/10/23 07:43:08;;;;;;;14.13;9.60;;;11.60;99.90;;;;;;4937108;28;20054;-83
2022/10/23 07:45:34;;;;;;;11.65;8.93;;;11.70;99.90;;;;;;4989186;28;20030;-82
2022/10/23 07:48:06;;;;;;;12.27;9.57;;;11.70;99.90;;;;;;4940175;28;20699;-83
2022/10/23 07:50:50;;;;;;;12.65;10.02;;;11.80;99.90;;;;;;4970286;28;20064;-82
2022/10/23 07:53:18;;;;;;;12.60;9.77;;;11.80;99.90;;;;;;5004716;28;20447;-84
2022/10/23 07:55:57;;;;;;;12.82;9.27;;;11.80;99.90;;;;;;4976583;28;20157;-82
2022/10/23 07:58:25;;;;;;;12.23;9.20;;;11.80;99.90;;;;;;4992266;28;20023;-81
2022/10/23 08:01:15;;;;;;;14.10;10.32;;;11.80;99.90;;;;;;4991954;28;20026;-83
2022/10/23 08:03:41;;;;;;;14.30;9.82;;;11.80;99.90;;;;;;4974966;28;20031;-83
2022/10/23 08:06:07;;;;;;;15.20;9.95;;;11.80;99.90;;;;;;4983505;28;20103;-81
2022/10/23 08:08:33;;;;;;;15.18;10.88;;;11.80;99.90;;;;;;4963078;28;20031;-82
2022/10/23 08:11:02;;;;;;;16.02;10.25;;;11.80;99.90;;;;;;4972763;28;20030;-82
2022/10/23 08:13:33;;;;;;;18.73;10.82;;;11.80;99.90;;;;;;4957349;28;20035;-82
2022/10/23 08:16:03;;;;;;;13.27;9.70;;;11.80;99.90;;;;;;4980686;28;20228;-81
2022/10/23 08:18:48;;;;;;;12.53;9.20;;;11.90;99.90;;;;;;4991473;28;20129;-80
2022/10/23 08:21:16;;;;;;;13.43;10.43;;;12.00;99.90;;;;;;4998095;28;20026;-81
2022/10/23 08:23:43;;;;;;;11.80;9.30;;;12.00;99.90;;;;;;4978192;28;20030;-83
2022/10/23 08:26:10;;;;;;;11.55;9.05;;;12.00;99.90;;;;;;4994821;28;20030;-82
2022/10/23 08:28:37;;;;;;;13.48;9.07;;;12.10;99.90;;;;;;4991363;28;20038;-82
2022/10/23 08:31:12;;;;;;;11.93;9.20;;;12.20;99.90;;;;;;4990767;28;20571;-81
2022/10/23 08:33:39;;;;;;;10.38;7.78;;;12.20;99.90;;;;;;4990397;28;20030;-82
2022/10/23 08:36:05;;;;;;;10.68;8.07;;;12.30;99.90;;;;;;4973443;28;20030;-81
2022/10/23 08:38:34;;;;;;;10.95;7.97;;;12.40;99.90;;;;;;4973888;28;20034;-81
2022/10/23 08:41:01;;;;;;;9.23;7.60;;;12.40;99.90;;;;;;4979989;28;20237;-80
2022/10/23 08:43:46;;;;;;;10.27;7.47;;;12.50;99.90;;;;;;4979624;28;20022;-80
2022/10/23 08:46:34;;;;;;;11.10;7.82;;;12.50;99.90;;;;;;5003264;28;20069;-82
2022/10/23 08:49:32;;;;;;;11.57;8.07;;;12.50;99.90;;;;;;4990167;28;20088;-80
2022/10/23 08:52:14;;;;;;;10.20;7.38;;;12.60;99.90;;;;;;4996097;28;20026;-80
2022/10/23 08:54:39;;;;;;;9.65;7.32;;;12.70;99.90;;;;;;4989016;28;20096;-81
2022/10/23 08:57:13;;;;;;;7.68;6.18;;;12.80;99.90;;;;;;4988830;28;20034;-81
2022/10/23 08:59:51;;;;;;;7.32;6.13;;;12.90;99.90;;;;;;4992556;28;20070;-81
2022/10/23 09:02:23;;;;;;;8.27;6.28;;;13.00;99.90;;;;;;4983435;28;20034;-81
2022/10/23 09:04:52;;;;;;;8.07;6.53;;;13.00;99.90;;;;;;4991129;28;20050;-81
2022/10/23 09:07:57;;;;;;;8.27;6.72;;;13.10;99.90;;;;;;4995801;28;20041;-80
2022/10/23 09:11:04;;;;;;;9.13;6.80;;;13.20;99.90;;;;;;4968806;28;20118;-81
2022/10/23 09:13:54;;;;;;;8.75;6.63;;;13.20;99.90;;;;;;4923617;28;20087;-81
2022/10/23 09:16:32;;;;;;;8.55;6.95;;;13.20;99.90;;;;;;5000440;28;20034;-81
2022/10/23 09:18:58;;;;;;;11.98;6.70;;;13.10;99.90;;;;;;5006203;28;20034;-80
2022/10/23 09:21:28;;;;;;;8.13;6.40;;;13.10;99.90;;;;;;4983522;28;20084;-80
2022/10/23 09:23:54;;;;;;;7.32;6.25;;;13.10;99.90;;;;;;5025173;28;20031;-80
2022/10/23 09:26:20;;;;;;;9.40;6.57;;;13.10;99.90;;;;;;5012453;28;20455;-80
2022/10/23 09:28:54;;;;;;;9.70;6.72;;;13.10;99.90;;;;;;4989582;28;20074;-80
2022/10/23 09:31:19;;;;;;;9.10;6.35;;;13.10;99.90;;;;;;4999188;28;20062;-79
2022/10/23 09:34:00;;;;;;;10.70;6.93;;;13.20;99.90;;;;;;4988867;28;20774;-81
2022/10/23 09:36:28;;;;;;;8.68;6.97;;;13.30;99.90;;;;;;4999766;28;20033;-81
2022/10/23 09:38:58;;;;;;;8.65;7.13;;;13.40;99.90;;;;;;5014136;28;20120;-80
2022/10/23 09:41:38;;;;;;;10.30;7.07;;;13.40;99.90;;;;;;4990039;28;20023;-80
2022/10/23 09:44:06;;;;;;;8.07;6.38;;;13.50;99.90;;;;;;4965702;28;20389;-81
2022/10/23 09:46:52;;;;;;;8.43;6.35;;;13.50;99.90;;;;;;5001504;28;20041;-82
2022/10/23 09:49:27;;;;;;;8.45;6.90;;;13.60;99.90;;;;;;4989510;28;20034;-81
2022/10/23 09:52:20;;;;;;;11.03;7.50;;;13.60;99.90;;;;;;4997369;28;20663;-81
2022/10/23 09:55:20;;;;;;;11.63;7.45;;;13.70;99.90;;;;;;4989651;28;20282;-83
2022/10/23 09:57:46;;;;;;;10.73;7.32;;;13.70;99.90;;;;;;5000934;28;20030;-81
2022/10/23 10:00:12;;;;;;;9.05;7.28;;;13.90;99.90;;;;;;4978808;28;20042;-80
2022/10/23 10:02:41;;;;;;;11.10;7.55;;;14.00;99.90;;;;;;5003858;28;20027;-81
2022/10/23 10:05:27;;;;;;;9.10;6.88;;;14.10;99.90;;;;;;4988332;28;20027;-81
2022/10/23 10:08:04;;;;;;;10.07;6.93;;;14.20;99.90;;;;;;5005213;28;20030;-80
2022/10/23 10:10:46;;;;;;;8.55;6.28;;;14.30;99.90;;;;;;5005442;28;20044;-79
2022/10/23 10:13:30;;;;;;;10.52;6.63;;;14.30;99.90;;;;;;4993689;28;20030;-79
2022/10/23 10:16:05;;;;;;;8.70;6.85;;;14.30;99.90;;;;;;4996236;28;20022;-80
2022/10/23 10:18:49;;;;;;;9.90;7.17;;;14.40;99.90;;;;;;5005417;28;20450;-80
2022/10/23 10:21:31;;;;;;;10.23;7.75;;;14.40;99.90;;;;;;4991579;28;20357;-80
2022/10/23 10:24:05;;;;;;;9.55;7.38;;;14.50;99.90;;;;;;4988696;28;20081;-80
2022/10/23 10:26:39;;;;;;;8.85;7.00;;;14.50;99.90;;;;;;4999492;28;20030;-80
2022/10/23 10:29:34;;;;;;;8.93;7.53;;;14.60;99.90;;;;;;5009076;28;20037;-81
2022/10/23 10:32:34;;;;;;;9.07;7.28;;;14.50;99.90;;;;;;4970253;28;20046;-80
2022/10/23 10:35:19;;;;;;;7.80;7.00;;;14.50;99.90;;;;;;4987975;28;20432;-80
2022/10/23 10:38:13;;;;;;;8.57;6.40;;;14.50;99.90;;;;;;4989224;28;20042;-80
2022/10/23 10:41:02;;;;;;;9.90;6.80;;;14.50;99.90;;;;;;4980380;28;20060;-81
2022/10/23 10:43:43;;;;;;;9.43;6.68;;;14.60;99.90;;;;;;5005134;28;20035;-82
2022/10/23 10:46:32;;;;;;;8.38;6.82;;;14.50;99.90;;;;;;4996456;28;20070;-81
2022/10/23 10:49:33;;;;;;;8.57;6.85;;;14.40;99.90;;;;;;5004814;28;20070;-82
2022/10/23 10:52:32;;;;;;;9.77;7.20;;;14.40;99.90;;;;;;4989620;28;20414;-81
2022/10/23 10:55:24;;;;;;;9.43;7.30;;;14.50;99.90;;;;;;4961933;28;20121;-80
2022/10/23 10:57:58;;;;;;;10.98;7.82;;;14.50;99.90;;;;;;4969940;28;20038;-82
2022/10/23 11:00:25;;;;;;;8.25;6.90;;;14.50;99.90;;;;;;4972898;28;20027;-81
2022/10/23 11:03:01;;;;;;;8.40;6.68;;;14.50;99.90;;;;;;4990362;28;20085;-80
2022/10/23 11:05:44;;;;;;;8.43;5.85;;;14.60;99.90;;;;;;4976391;28;20034;-81
2022/10/23 11:08:26;;;;;;;10.95;6.82;;;14.80;99.90;;;;;;4969345;28;20035;-81
2022/10/23 11:11:05;;;;;;;7.78;6.95;;;14.90;99.90;;;;;;4998708;28;20026;-79
2022/10/23 11:13:34;;;;;;;7.55;6.28;;;14.80;99.90;;;;;;4996756;28;20480;-81
2022/10/23 11:16:05;;;;;;;7.88;6.28;;;14.80;99.90;;;;;;4984620;28;20430;-81
2022/10/23 11:18:32;;;;;;;8.13;6.03;;;14.90;99.90;;;;;;5014450;28;20030;-81
2022/10/23 11:21:13;;;;;;;7.05;6.32;;;14.90;99.90;;;;;;5021764;28;20038;-81
2022/10/23 11:24:04;;;;;;;9.15;6.90;;;14.80;99.90;;;;;;4995209;28;20388;-81
2022/10/23 11:26:37;;;;;;;7.00;5.93;;;14.80;99.90;;;;;;5004037;28;20029;-81
2022/10/23 11:29:44;;;;;;;10.18;6.15;;;14.70;99.90;;;;;;5022461;28;20502;-80
2022/10/23 11:32:22;;;;;;;8.38;6.40;;;14.70;99.90;;;;;;4935675;29;20783;-80
2022/10/23 11:35:09;;;;;;;8.63;6.03;;;14.70;99.90;;;;;;4985507;28;20077;-78
2022/10/23 11:37:36;;;;;;;6.05;5.43;;;14.80;99.90;;;;;;4978726;28;20058;-79
2022/10/23 11:40:05;;;;;;;8.65;6.07;;;14.90;99.90;;;;;;4976662;28;20035;-80
2022/10/23 11:42:46;;;;;;;5.32;4.78;;;15.00;99.90;;;;;;4993665;28;20048;-80
2022/10/23 11:45:35;;;;;;;8.20;5.90;;;15.10;99.90;;;;;;4990307;28;20062;-80
2022/10/23 11:48:20;;;;;;;5.50;4.65;;;15.20;99.90;;;;;;5012771;28;20034;-81
2022/10/23 11:50:46;;;;;;;6.53;5.07;;;15.30;99.90;;;;;;5000289;28;20030;-80
2022/10/23 11:53:41;;;;;;;5.70;4.78;;;15.30;99.90;;;;;;5028028;28;20041;-81
2022/10/23 11:56:11;;;;;;;6.50;4.47;;;15.50;99.90;;;;;;4982073;28;20074;-80
2022/10/23 11:58:44;;;;;;;6.25;4.00;;;15.60;99.90;;;;;;4976304;28;20398;-80
2022/10/23 12:01:19;;;;;;;5.15;3.47;;;15.60;99.90;;;;;;4995803;28;20654;-80
2022/10/23 12:04:08;;;;;;;7.30;4.05;;;15.70;99.90;;;;;;4993118;28;20081;-80
2022/10/23 12:06:46;;;;;;;4.50;3.65;;;15.80;99.90;;;;;;4999855;28;20100;-81
2022/10/23 12:09:38;;;;;;;3.85;2.97;;;15.90;99.90;;;;;;5005206;28;20448;-80
2022/10/23 12:12:16;;;;;;;5.30;2.97;;;16.00;99.90;;;;;;4993434;28;20030;-81
2022/10/23 12:14:46;;;;;;;5.20;3.22;;;16.10;99.90;;;;;;4991556;28;20038;-81
2022/10/23 12:17:21;;;;;;;3.75;2.90;;;16.10;99.90;;;;;;4975236;28;20038;-80
2022/10/23 12:19:51;;;;;;;3.95;3.20;;;16.20;99.90;;;;;;4989593;28;20026;-81
2022/10/23 12:22:19;;;;;;;2.63;2.42;;;16.20;99.90;;;;;;4991865;28;20543;-80
2022/10/23 12:24:54;;;;;;;1.88;1.77;;;16.20;99.90;;;;;;4991149;28;20037;-80
2022/10/23 12:27:50;;;;;;;2.10;1.90;;;16.30;99.90;;;;;;4999353;28;20034;-81
2022/10/23 12:30:23;;;;;;;4.18;1.52;;;16.30;99.90;;;;;;4990446;28;20608;-81
2022/10/23 12:33:25;;;;;;;1.80;1.52;;;16.40;99.90;;;;;;4984901;28;20062;-80
2022/10/23 12:36:18;;;;;;;2.65;1.40;;;16.50;99.90;;;;;;4970907;28;20029;-80
2022/10/23 12:38:46;;;;;;;1.30;1.23;;;16.60;99.90;;;;;;4989275;28;20083;-80
2022/10/23 12:41:25;;;;;;;1.65;1.55;;;16.60;99.90;;;;;;4991213;28;20537;-80
2022/10/23 12:44:00;;;;;;;1.55;1.25;;;16.60;99.90;;;;;;4973928;28;20527;-81
2022/10/23 12:46:39;;;;;;;;;;;16.70;99.90;;;;;;5000169;28;20042;-81
2022/10/23 12:49:17;;;;;;;2.67;1.60;;;16.60;99.90;;;;;;4987636;28;19968;-80
2022/10/23 12:51:43;;;;;;;3.13;1.33;;;16.60;99.90;;;;;;5004411;28;20088;-80
2022/10/23 12:54:18;;;;;;;1.80;1.17;;;16.60;99.90;;;;;;4992241;28;20446;-80
2022/10/23 12:56:44;;;;;;;2.15;1.50;;;16.70;99.90;;;;;;4980615;28;20039;-81
2022/10/23 12:59:17;;;;;;;1.08;0.90;;;16.80;99.90;;;;;;4987710;28;20035;-81
2022/10/23 13:01:43;;;;;;;1.25;0.98;;;16.80;99.90;;;;;;4987000;28;20038;-80
2022/10/23 13:04:31;;;;;;;1.10;0.93;;;16.90;99.90;;;;;;4990051;28;20026;-81
2022/10/23 13:07:02;;;;;;;1.95;0.80;;;17.00;99.90;;;;;;4992171;28;20479;-80
2022/10/23 13:09:33;;;;;;;0.80;0.80;;;17.00;99.90;;;;;;4976258;28;20038;-81
2022/10/23 13:12:21;;;;;;;1.58;0.77;;;16.90;99.90;;;;;;4993752;28;20093;-81
2022/10/23 13:15:06;;;;;;;1.50;0.80;;;16.90;99.90;;;;;;4975283;28;20667;-81